Time;durP1;ratioP1;P1;durP2;ratioP2;P2;SDS_P1;SDS_P2;PMS_P1;PMS_P2;Temp;Humidity;BMP_temperature;BMP_pressure;BME280_temperature;BME280_humidity;BME280_pressure;Samples;Min_cycle;Max_cycle;Signal;HPM_P1;HPM_P2
2021/09/03 00:00:24;;;;;;;4.50;2.15;;;;;;;11.22;63.57;100194.38;1747110;80;22182;-72
2021/09/03 00:02:50;;;;;;;3.25;1.32;;;;;;;11.09;64.00;100199.35;1745477;80;20934;-71
2021/09/03 00:05:19;;;;;;;4.78;1.20;;;;;;;10.99;64.26;100201.09;1710620;82;21064;-72
2021/09/03 00:07:45;;;;;;;3.27;1.30;;;;;;;10.92;64.48;100199.95;1745313;80;21464;-72
2021/09/03 00:10:13;;;;;;;3.52;1.00;;;;;;;10.83;64.78;100197.59;1745957;80;20929;-72
2021/09/03 00:12:42;;;;;;;3.72;1.10;;;;;;;10.79;64.97;100205.88;1745676;80;21056;-72
2021/09/03 00:15:11;;;;;;;4.33;1.00;;;;;;;10.71;65.12;100204.36;1729749;80;20981;-72
2021/09/03 00:17:38;;;;;;;2.98;1.05;;;;;;;10.66;65.31;100206.55;1757748;80;21526;-73
2021/09/03 00:20:06;;;;;;;3.90;0.88;;;;;;;10.62;65.41;100210.42;1758274;80;20941;-72
2021/09/03 00:22:32;;;;;;;3.47;1.00;;;;;;;10.59;65.51;100202.25;1744272;80;20993;-72
2021/09/03 00:25:00;;;;;;;2.02;0.85;;;;;;;10.56;65.58;100209.11;1750942;80;20932;-72
2021/09/03 00:27:27;;;;;;;1.72;0.95;;;;;;;10.51;65.77;100205.51;1739565;80;21048;-72
2021/09/03 00:29:53;;;;;;;2.40;0.85;;;;;;;10.47;65.87;100204.58;1749854;80;20957;-72
2021/09/03 00:32:20;;;;;;;3.08;1.05;;;;;;;10.46;65.94;100210.83;1745518;80;21020;-72
2021/09/03 00:34:46;;;;;;;2.40;1.00;;;;;;;10.42;65.98;100213.34;1755870;80;21044;-72
2021/09/03 00:37:12;;;;;;;3.17;0.95;;;;;;;10.38;66.05;100215.89;1770698;80;21395;-72
2021/09/03 00:39:39;;;;;;;6.83;1.10;;;;;;;10.38;66.08;100225.12;1773473;80;21431;-72
2021/09/03 00:42:11;;;;;;;4.53;1.12;;;;;;;10.32;66.22;100214.09;1749011;80;21124;-73
2021/09/03 00:44:39;;;;;;;4.25;1.20;;;;;;;10.24;66.47;100217.85;1756019;80;21028;-72
2021/09/03 00:47:06;;;;;;;2.45;1.10;;;;;;;10.20;66.54;100216.37;1752654;80;21028;-72
2021/09/03 00:49:32;;;;;;;2.02;1.10;;;;;;;10.19;66.55;100213.37;1745475;80;21800;-71
2021/09/03 00:52:04;;;;;;;3.10;1.05;;;;;;;10.18;66.61;100208.23;1744331;80;21075;-71
2021/09/03 00:54:30;;;;;;;4.47;1.20;;;;;;;10.15;66.69;100215.08;1742902;80;20960;-71
2021/09/03 00:56:59;;;;;;;3.00;1.00;;;;;;;10.12;66.71;100212.18;1749420;80;20960;-71
2021/09/03 00:59:26;;;;;;;2.90;1.17;;;;;;;10.12;66.74;100210.86;1746750;80;21473;-71
2021/09/03 01:01:54;;;;;;;5.22;1.00;;;;;;;10.08;66.79;100208.12;1745900;80;20965;-71
2021/09/03 01:04:21;;;;;;;3.92;1.05;;;;;;;10.05;66.97;100216.30;1743982;80;21444;-71
2021/09/03 01:06:49;;;;;;;5.15;1.37;;;;;;;10.01;67.00;100218.80;1769879;80;21003;-71
2021/09/03 01:09:17;;;;;;;2.87;1.12;;;;;;;9.98;67.08;100214.61;1750510;80;20997;-71
2021/09/03 01:11:45;;;;;;;5.47;1.12;;;;;;;9.95;67.15;100217.98;1744550;82;20944;-71
2021/09/03 01:14:12;;;;;;;1.87;1.00;;;;;;;9.94;67.23;100220.23;1765474;80;21822;-71
2021/09/03 01:16:40;;;;;;;2.20;1.20;;;;;;;9.91;67.34;100213.41;1759147;80;20960;-71
2021/09/03 01:19:06;;;;;;;1.80;1.07;;;;;;;9.90;67.46;100223.61;1753069;80;21016;-71
2021/09/03 01:21:34;;;;;;;2.95;0.90;;;;;;;9.89;67.75;100227.70;1751317;80;21001;-71
2021/09/03 01:24:02;;;;;;;2.30;1.00;;;;;;;9.89;67.74;100223.73;1744537;81;20948;-71
2021/09/03 01:26:29;;;;;;;1.70;0.90;;;;;;;9.90;67.74;100226.25;1744843;80;21793;-72
2021/09/03 01:28:55;;;;;;;2.85;1.00;;;;;;;9.92;67.72;100231.41;1772993;80;21530;-71
2021/09/03 01:31:22;;;;;;;2.72;0.90;;;;;;;9.92;67.69;100232.23;1745843;80;20857;-71
2021/09/03 01:33:54;;;;;;;2.33;1.00;;;;;;;9.91;67.68;100230.56;1746134;80;21051;-71
2021/09/03 01:36:17;;;;;;;1.77;1.17;;;;;;;9.90;67.64;100230.69;1731832;82;21006;-71
2021/09/03 01:38:43;;;;;;;1.42;0.85;;;;;;;9.89;67.68;100237.77;1752400;80;22611;-71
2021/09/03 01:41:10;;;;;;;6.37;1.45;;;;;;;9.85;67.67;100239.46;1751797;79;21149;-71
2021/09/03 01:43:38;;;;;;;2.95;1.60;;;;;;;9.76;67.80;100246.30;1748717;80;20981;-71
2021/09/03 01:46:07;;;;;;;3.33;1.50;;;;;;;9.67;67.90;100245.69;1771807;80;21147;-72
2021/09/03 01:48:34;;;;;;;9.60;1.57;;;;;;;9.62;67.99;100239.92;1751044;80;21399;-71
2021/09/03 01:51:02;;;;;;;5.70;1.60;;;;;;;9.55;68.09;100240.86;1750914;80;22658;-71
2021/09/03 01:53:29;;;;;;;2.85;1.42;;;;;;;9.50;68.23;100237.75;1761680;80;21447;-71
2021/09/03 01:55:55;;;;;;;2.42;1.40;;;;;;;9.45;68.37;100241.20;1771989;80;21351;-71
2021/09/03 01:58:21;;;;;;;3.58;1.30;;;;;;;9.39;68.52;100248.29;1774389;80;20936;-72
2021/09/03 02:00:48;;;;;;;3.22;1.20;;;;;;;9.36;68.65;100247.18;1766147;80;21012;-72
2021/09/03 02:03:14;;;;;;;3.92;1.30;;;;;;;9.33;68.87;100247.42;1767170;80;21823;-71
2021/09/03 02:05:42;;;;;;;4.95;1.20;;;;;;;9.30;68.93;100249.83;1747680;80;20929;-71
2021/09/03 02:08:08;;;;;;;1.52;1.05;;;;;;;9.29;68.97;100241.56;1769815;80;20980;-71
2021/09/03 02:10:36;;;;;;;1.95;1.25;;;;;;;9.27;69.10;100236.89;1693419;80;21023;-71
2021/09/03 02:13:02;;;;;;;3.37;1.42;;;;;;;9.25;69.21;100242.73;1741721;80;20972;-71
2021/09/03 02:15:28;;;;;;;2.52;1.22;;;;;;;9.24;69.29;100238.91;1740871;80;22174;-71
2021/09/03 02:17:56;;;;;;;2.55;1.20;;;;;;;9.23;69.38;100239.38;1741073;80;21108;-71
2021/09/03 02:20:23;;;;;;;4.22;1.40;;;;;;;9.22;69.50;100242.97;1747051;80;20984;-72
2021/09/03 02:22:50;;;;;;;3.72;1.30;;;;;;;9.21;69.50;100239.98;1749967;80;21463;-70
2021/09/03 02:25:16;;;;;;;3.67;1.40;;;;;;;9.20;69.59;100249.33;1740113;80;20937;-71
2021/09/03 02:27:42;;;;;;;4.37;1.30;;;;;;;9.20;69.73;100240.10;1745485;80;22157;-71
2021/09/03 02:30:10;;;;;;;2.47;1.40;;;;;;;9.21;69.79;100240.46;1753044;80;21012;-71
2021/09/03 02:32:37;;;;;;;3.87;1.30;;;;;;;9.21;69.98;100243.09;1753655;80;21016;-71
2021/09/03 02:35:06;;;;;;;1.72;1.22;;;;;;;9.20;70.02;100247.53;1750434;80;21396;-72
2021/09/03 02:37:33;;;;;;;3.47;1.55;;;;;;;9.22;69.98;100244.77;1771771;80;21321;-71
2021/09/03 02:39:59;;;;;;;2.50;1.60;;;;;;;9.24;69.96;100245.48;1772202;80;22203;-71
2021/09/03 02:42:26;;;;;;;3.92;2.00;;;;;;;9.24;69.93;100251.59;1763401;80;21023;-72
2021/09/03 02:44:52;;;;;;;5.45;1.70;;;;;;;9.21;69.93;100258.42;1758532;80;21099;-71
2021/09/03 02:47:18;;;;;;;3.83;1.98;;;;;;;9.19;69.96;100257.71;1744418;80;21024;-71
2021/09/03 02:49:45;;;;;;;3.52;1.75;;;;;;;9.16;69.92;100264.51;1763470;80;21379;-72
2021/09/03 02:52:14;;;;;;;4.37;1.90;;;;;;;9.12;69.89;100253.38;1742574;80;22641;-73
2021/09/03 02:54:41;;;;;;;4.55;1.70;;;;;;;9.10;69.98;100264.98;1754019;80;20925;-71
2021/09/03 02:57:07;;;;;;;4.58;1.70;;;;;;;9.07;69.98;100255.97;1759369;80;21024;-72
2021/09/03 02:59:34;;;;;;;3.60;1.85;;;;;;;9.03;70.02;100254.06;1751133;80;21023;-72
2021/09/03 03:02:00;;;;;;;5.72;1.75;;;;;;;9.03;70.17;100255.38;1750520;80;21460;-73
2021/09/03 03:04:26;;;;;;;3.87;1.52;;;;;;;8.99;70.16;100254.42;1766960;80;22775;-71
2021/09/03 03:06:53;;;;;;;4.03;1.47;;;;;;;8.99;70.21;100259.20;1741566;80;21416;-72
2021/09/03 03:09:19;;;;;;;4.08;1.85;;;;;;;8.97;70.26;100257.62;1749716;80;21392;-72
2021/09/03 03:11:45;;;;;;;2.52;1.62;;;;;;;8.95;70.25;100253.78;1756202;80;21439;-71
2021/09/03 03:14:26;;;;;;;3.95;1.87;;;;;;;8.95;70.31;100258.22;1739260;80;21009;-71
2021/09/03 03:16:45;;;;;;;3.92;1.90;;;;;;;8.92;70.33;100255.82;1745836;80;21051;-71
2021/09/03 03:19:12;;;;;;;4.55;1.72;;;;;;;8.89;70.35;100255.09;1751688;80;20976;-71
2021/09/03 03:21:40;;;;;;;4.17;2.10;;;;;;;8.90;70.38;100253.30;1746017;80;21512;-71
2021/09/03 03:24:07;;;;;;;4.80;2.42;;;;;;;8.91;70.40;100255.45;1752830;80;20976;-71
2021/09/03 03:26:33;;;;;;;4.72;2.02;;;;;;;8.91;70.41;100258.09;1773366;80;21067;-71
2021/09/03 03:29:01;;;;;;;3.77;1.82;;;;;;;8.91;70.45;100257.61;1765645;80;21809;-69
2021/09/03 03:31:31;;;;;;;5.22;2.02;;;;;;;8.91;70.47;100259.41;1749757;80;20996;-70
2021/09/03 03:33:56;;;;;;;4.50;2.00;;;;;;;8.88;70.43;100257.85;1749612;80;21067;-71
2021/09/03 03:36:22;;;;;;;5.72;1.80;;;;;;;8.89;70.39;100260.84;1774274;80;20945;-71
2021/09/03 03:38:49;;;;;;;4.80;1.75;;;;;;;8.87;70.42;100263.56;1774465;80;21032;-71
2021/09/03 03:41:16;;;;;;;3.35;1.77;;;;;;;8.88;70.44;100265.75;1773100;80;21779;-71
2021/09/03 03:43:42;;;;;;;3.27;1.90;;;;;;;8.89;70.41;100268.75;1775145;80;20934;-71
2021/09/03 03:46:09;;;;;;;3.80;1.40;;;;;;;8.90;70.40;100269.11;1754020;80;21032;-71
2021/09/03 03:48:35;;;;;;;4.70;1.57;;;;;;;8.89;70.47;100268.27;1744673;80;20964;-71
2021/09/03 03:51:01;;;;;;;7.03;2.10;;;;;;;8.90;70.51;100267.79;1744732;82;20925;-71
2021/09/03 03:53:28;;;;;;;6.58;2.30;;;;;;;8.92;70.49;100267.67;1746947;80;22151;-71
2021/09/03 03:55:54;;;;;;;7.12;2.20;;;;;;;8.95;70.48;100274.86;1744479;82;20929;-71
2021/09/03 03:58:22;;;;;;;4.78;1.87;;;;;;;8.96;70.49;100280.48;1744485;82;20980;-71
2021/09/03 04:00:49;;;;;;;4.53;2.00;;;;;;;8.98;70.47;100281.23;1751400;80;21044;-72
2021/09/03 04:03:19;;;;;;;3.72;1.90;;;;;;;9.00;70.41;100281.95;1758222;80;21044;-71
2021/09/03 04:05:47;;;;;;;4.60;1.82;;;;;;;9.01;70.40;100287.59;1769099;80;22245;-72
2021/09/03 04:08:13;;;;;;;4.62;2.02;;;;;;;9.03;70.39;100292.73;1751335;80;20928;-72
2021/09/03 04:10:39;;;;;;;4.60;2.00;;;;;;;9.03;70.39;100283.52;1742681;82;20988;-72
2021/09/03 04:13:07;;;;;;;6.12;1.92;;;;;;;9.06;70.35;100290.70;1744553;82;21514;-70
2021/09/03 04:15:34;;;;;;;4.47;2.00;;;;;;;9.09;70.33;100297.56;1759690;80;21344;-71
2021/09/03 04:18:02;;;;;;;2.62;1.70;;;;;;;9.12;70.25;100296.01;1744731;80;22232;-70
2021/09/03 04:20:30;;;;;;;3.17;1.52;;;;;;;9.17;70.21;100294.72;1770710;79;21024;-69
2021/09/03 04:22:58;;;;;;;2.40;1.60;;;;;;;9.20;70.18;100295.44;1769538;80;21057;-70
2021/09/03 04:25:25;;;;;;;2.98;1.65;;;;;;;9.24;70.12;100299.52;1744395;82;20962;-70
2021/09/03 04:27:51;;;;;;;2.65;1.80;;;;;;;9.27;70.03;100297.51;1750646;80;21436;-75
2021/09/03 04:30:20;;;;;;;4.50;1.80;;;;;;;9.27;69.96;100296.19;1744514;80;21803;-72
2021/09/03 04:32:48;;;;;;;3.47;1.55;;;;;;;9.33;69.91;100302.78;1760523;80;21062;-70
2021/09/03 04:35:14;;;;;;;3.90;1.55;;;;;;;9.37;69.89;100300.30;1746173;80;21069;-73
2021/09/03 04:37:49;;;;;;;5.50;1.82;;;;;;;9.41;69.88;100298.61;1763587;80;21040;-76
2021/09/03 04:40:17;;;;;;;3.05;1.65;;;;;;;9.45;69.78;100290.82;1739680;80;21352;-73
2021/09/03 04:42:44;;;;;;;4.35;1.55;;;;;;;9.52;69.72;100292.52;1762697;80;21852;-75
2021/09/03 04:45:11;;;;;;;4.45;1.60;;;;;;;9.58;69.52;100305.25;1757983;80;20965;-77
2021/09/03 04:47:38;;;;;;;3.12;1.30;;;;;;;9.64;69.46;100302.13;1771265;79;21000;-75
2021/09/03 04:50:06;;;;;;;2.37;1.40;;;;;;;9.71;69.41;100305.98;1750161;80;21388;-75
2021/09/03 04:52:33;;;;;;;2.50;1.50;;;;;;;9.79;69.20;100300.59;1744607;82;21396;-76
2021/09/03 04:54:59;;;;;;;3.70;1.52;;;;;;;9.86;69.08;100303.13;1776471;80;22810;-76
2021/09/03 04:57:26;;;;;;;3.55;1.40;;;;;;;9.92;68.78;100308.75;1783295;80;21020;-76
2021/09/03 04:59:54;;;;;;;3.67;1.50;;;;;;;9.99;68.57;100301.20;1783311;80;20933;-76
2021/09/03 05:02:21;;;;;;;2.83;1.42;;;;;;;10.05;68.41;100299.42;1783404;80;21075;-76
2021/09/03 05:04:47;;;;;;;4.25;1.30;;;;;;;10.12;68.36;100296.63;1760277;80;21415;-76
2021/09/03 05:07:14;;;;;;;3.75;1.20;;;;;;;10.20;68.20;100299.52;1752454;80;21871;-75
2021/09/03 05:09:42;;;;;;;2.05;1.22;;;;;;;10.29;68.05;100301.45;1694581;82;21419;-75
2021/09/03 05:12:08;;;;;;;3.25;1.30;;;;;;;10.38;67.96;100301.21;1753406;80;20976;-76
2021/09/03 05:14:36;;;;;;;2.92;1.32;;;;;;;10.48;67.74;100301.31;1752332;82;20952;-75
2021/09/03 05:17:03;;;;;;;2.15;1.10;;;;;;;10.56;67.45;100297.58;1753317;80;21506;-74
2021/09/03 05:19:30;;;;;;;1.72;1.20;;;;;;;10.64;67.15;100303.09;1764511;80;21738;-75
2021/09/03 05:21:58;;;;;;;5.12;1.30;;;;;;;10.71;66.88;100298.13;1757568;80;21023;-74
2021/09/03 05:24:25;;;;;;;2.08;1.00;;;;;;;10.78;66.85;100303.28;1755734;80;21129;-73
2021/09/03 05:26:52;;;;;;;4.20;1.40;;;;;;;10.84;66.51;100300.98;1759945;80;20959;-76
2021/09/03 05:29:18;;;;;;;2.95;1.32;;;;;;;10.92;66.40;100299.53;1775144;80;20976;-75
2021/09/03 05:31:44;;;;;;;3.47;1.37;;;;;;;11.01;66.42;100296.13;1781404;79;22735;-73
2021/09/03 05:34:11;;;;;;;2.70;1.40;;;;;;;11.09;65.71;100298.95;1767780;80;20940;-73
2021/09/03 05:36:37;;;;;;;2.45;1.22;;;;;;;11.13;65.42;100297.75;1763140;80;21063;-70
2021/09/03 05:39:05;;;;;;;6.92;1.42;;;;;;;11.16;65.33;100294.36;1775250;80;20980;-72
2021/09/03 05:41:32;;;;;;;2.72;1.25;;;;;;;11.23;65.14;100301.31;1783452;80;20984;-71
2021/09/03 05:43:58;;;;;;;2.65;1.30;;;;;;;11.30;65.11;100298.52;1757116;80;21765;-74
2021/09/03 05:46:25;;;;;;;2.08;1.25;;;;;;;11.40;65.05;100306.03;1760871;80;21407;-72
2021/09/03 05:48:51;;;;;;;3.87;1.37;;;;;;;11.52;64.91;100303.32;1753175;80;21035;-72
2021/09/03 05:51:20;;;;;;;2.37;1.10;;;;;;;11.60;64.73;100298.23;1752899;80;20980;-70
2021/09/03 05:53:46;;;;;;;6.35;1.40;;;;;;;11.69;64.19;100307.55;1750838;80;21416;-72
2021/09/03 05:56:12;;;;;;;2.00;1.07;;;;;;;11.72;63.72;100300.66;1757070;80;22242;-73
2021/09/03 05:58:39;;;;;;;3.65;1.00;;;;;;;11.78;63.65;100300.63;1758849;80;21023;-74
2021/09/03 06:01:05;;;;;;;2.65;1.32;;;;;;;11.87;63.47;100302.52;1756968;80;20921;-75
2021/09/03 06:03:33;;;;;;;3.55;0.90;;;;;;;11.94;63.07;100304.97;1745044;80;20945;-74
2021/09/03 06:06:01;;;;;;;1.67;0.95;;;;;;;12.04;62.83;100307.66;1744532;80;21031;-75
2021/09/03 06:08:28;;;;;;;1.65;0.98;;;;;;;12.12;62.36;100308.33;1774020;79;21838;-74
2021/09/03 06:10:55;;;;;;;3.15;1.30;;;;;;;12.18;61.94;100317.08;1766536;80;21384;-76
2021/09/03 06:13:22;;;;;;;3.25;1.10;;;;;;;12.24;61.41;100301.95;1734183;82;21002;-71
2021/09/03 06:15:48;;;;;;;2.17;0.90;;;;;;;12.33;61.11;100315.72;1767612;80;21048;-72
2021/09/03 06:18:14;;;;;;;2.90;1.10;;;;;;;12.45;60.75;100306.72;1747194;80;21126;-72
2021/09/03 06:20:41;;;;;;;2.08;0.88;;;;;;;12.57;60.24;100306.95;1744370;82;21861;-71
2021/09/03 06:23:07;;;;;;;1.45;0.80;;;;;;;12.64;59.49;100306.38;1744263;82;21008;-70
2021/09/03 06:25:34;;;;;;;2.20;1.10;;;;;;;12.73;59.69;100309.05;1744340;82;21502;-72
2021/09/03 06:28:01;;;;;;;3.02;0.93;;;;;;;12.86;59.68;100312.78;1744706;80;20984;-74
2021/09/03 06:30:28;;;;;;;1.87;0.88;;;;;;;12.98;59.09;100314.81;1775037;80;21490;-72
2021/09/03 06:32:54;;;;;;;1.42;0.80;;;;;;;13.02;58.29;100318.36;1775091;80;22598;-70
2021/09/03 06:35:21;;;;;;;4.72;0.70;;;;;;;13.09;57.78;100317.32;1766816;79;20992;-72
2021/09/03 06:37:47;;;;;;;2.87;1.07;;;;;;;13.17;57.11;100315.65;1739098;82;21072;-72
2021/09/03 06:40:13;;;;;;;3.17;0.80;;;;;;;13.26;56.86;100316.66;1734829;80;21022;-71
2021/09/03 06:42:40;;;;;;;0.90;0.60;;;;;;;13.29;56.64;100305.77;1745701;80;21051;-72
2021/09/03 06:45:09;;;;;;;3.22;0.80;;;;;;;13.37;56.87;100313.02;1750611;80;21847;-74
2021/09/03 06:47:36;;;;;;;2.55;0.70;;;;;;;13.50;56.87;100312.22;1745271;80;20964;-72
2021/09/03 06:50:05;;;;;;;2.12;0.90;;;;;;;13.60;56.00;100307.73;1726349;80;20960;-72
2021/09/03 06:52:32;;;;;;;1.90;0.62;;;;;;;13.71;55.83;100311.58;1751515;79;21001;-73
2021/09/03 06:55:00;;;;;;;5.72;1.10;;;;;;;13.82;54.84;100317.70;1760244;80;21479;-73
2021/09/03 06:57:27;;;;;;;3.05;0.98;;;;;;;13.89;54.67;100314.30;1756768;80;22204;-71
2021/09/03 06:59:53;;;;;;;1.12;0.70;;;;;;;13.95;53.46;100324.35;1765027;80;20940;-76
2021/09/03 07:02:20;;;;;;;2.00;0.47;;;;;;;13.98;53.17;100314.76;1749074;80;20988;-77
2021/09/03 07:04:46;;;;;;;1.85;0.70;;;;;;;13.97;52.77;100313.09;1727114;80;21032;-76
2021/09/03 07:07:13;;;;;;;3.65;0.70;;;;;;;14.07;53.15;100317.53;1763561;80;21075;-76
2021/09/03 07:09:39;;;;;;;2.15;0.70;;;;;;;14.14;52.54;100314.16;1745242;80;21838;-78
2021/09/03 07:12:07;;;;;;;1.57;0.60;;;;;;;14.21;52.15;100317.91;1746188;80;21498;-77
2021/09/03 07:14:35;;;;;;;3.92;0.88;;;;;;;14.31;51.84;100321.84;1743267;80;20933;-77
2021/09/03 07:17:01;;;;;;;1.37;0.70;;;;;;;14.39;51.58;100313.98;1762305;80;20973;-77
2021/09/03 07:19:28;;;;;;;1.42;0.80;;;;;;;14.49;51.22;100326.76;1757136;80;21013;-76
2021/09/03 07:21:55;;;;;;;1.02;0.60;;;;;;;14.56;50.35;100323.83;1754407;80;21890;-79
2021/09/03 07:24:21;;;;;;;1.77;0.57;;;;;;;14.57;50.35;100316.69;1748527;80;21388;-77
2021/09/03 07:26:48;;;;;;;0.90;0.60;;;;;;;14.59;50.32;100316.07;1745822;80;21419;-76
2021/09/03 07:29:14;;;;;;;1.00;0.60;;;;;;;14.67;51.25;100320.62;1745502;80;21406;-77
2021/09/03 07:31:41;;;;;;;0.60;0.50;;;;;;;14.82;50.83;100321.30;1758539;80;21007;-77
2021/09/03 07:34:07;;;;;;;5.10;0.60;;;;;;;14.95;50.43;100323.58;1769393;80;22230;-77
2021/09/03 07:36:34;;;;;;;2.25;0.70;;;;;;;15.04;49.70;100316.02;1761509;80;21063;-76
2021/09/03 07:39:01;;;;;;;3.12;0.85;;;;;;;15.09;49.67;100330.21;1760436;80;21008;-76
2021/09/03 07:41:27;;;;;;;2.98;0.70;;;;;;;15.10;49.45;100310.59;1688852;83;21052;-76
2021/09/03 07:43:54;;;;;;;1.60;0.55;;;;;;;15.18;50.22;100311.51;1754538;80;21004;-76
2021/09/03 07:46:21;;;;;;;0.78;0.60;;;;;;;15.30;47.79;100311.27;1775082;80;22182;-79
2021/09/03 07:48:47;;;;;;;2.33;0.75;;;;;;;15.32;47.79;100311.45;1775066;79;21451;-80
2021/09/03 07:51:15;;;;;;;0.90;0.60;;;;;;;15.30;48.67;100309.94;1775100;80;20945;-78
2021/09/03 07:53:43;;;;;;;1.05;0.60;;;;;;;15.35;48.37;100315.16;1775049;80;20914;-79
2021/09/03 07:56:11;;;;;;;3.35;0.80;;;;;;;15.44;48.15;100311.57;1764983;79;21035;-80
2021/09/03 07:58:37;;;;;;;2.90;0.70;;;;;;;15.55;47.74;100304.32;1775747;80;22820;-77
2021/09/03 08:01:04;;;;;;;1.67;0.50;;;;;;;15.61;48.22;100300.55;1764714;80;21384;-73
2021/09/03 08:03:31;;;;;;;0.95;0.50;;;;;;;15.73;47.65;100305.15;1747733;82;21497;-82
2021/09/03 08:05:57;;;;;;;1.32;0.70;;;;;;;15.85;46.88;100309.21;1747682;82;21461;-81
2021/09/03 08:08:23;;;;;;;1.55;0.72;;;;;;;15.89;46.43;100317.22;1747717;82;21366;-81
2021/09/03 08:10:51;;;;;;;1.40;0.50;;;;;;;15.87;46.58;100303.22;1747752;82;21404;-83
2021/09/03 08:13:18;;;;;;;1.02;0.60;;;;;;;15.90;46.83;100303.40;1748426;80;21510;-82
2021/09/03 08:15:44;;;;;;;1.22;0.53;;;;;;;15.97;46.72;100287.13;1747641;82;21339;-83
2021/09/03 08:18:12;;;;;;;3.77;0.70;;;;;;;16.10;47.37;100294.17;1761676;80;21065;-83
2021/09/03 08:20:44;;;;;;;2.95;0.60;;;;;;;16.23;45.79;100303.08;1764346;80;21004;-81
2021/09/03 08:23:11;;;;;;;3.90;0.60;;;;;;;16.26;45.67;100292.09;1771534;80;21035;-80
2021/09/03 08:25:38;;;;;;;0.80;0.50;;;;;;;16.30;45.47;100280.94;1778220;80;20984;-79
2021/09/03 08:28:05;;;;;;;1.72;0.60;;;;;;;16.33;45.18;100286.97;1777245;80;20996;-81
2021/09/03 08:30:32;;;;;;;1.47;0.70;;;;;;;16.38;45.32;100272.64;1776901;80;21258;-79
2021/09/03 08:32:59;;;;;;;0.80;0.40;;;;;;;16.41;44.83;100283.83;1777361;79;21003;-82
2021/09/03 08:35:25;;;;;;;1.60;0.60;;;;;;;16.38;44.73;100288.63;1760743;80;22198;-83
2021/09/03 08:37:53;;;;;;;1.47;0.60;;;;;;;16.33;45.43;100278.47;1750812;80;20946;-76
2021/09/03 08:40:20;;;;;;;1.22;0.60;;;;;;;16.41;44.97;100279.00;1709282;84;21025;-76
2021/09/03 08:42:46;;;;;;;2.83;0.60;;;;;;;16.54;44.69;100268.70;1709684;82;21009;-78
2021/09/03 08:45:14;;;;;;;1.85;0.40;;;;;;;16.63;44.07;100269.55;1778150;80;21011;-77
2021/09/03 08:47:43;;;;;;;2.72;0.60;;;;;;;16.65;44.29;100272.39;1753338;80;21825;-76
2021/09/03 08:50:12;;;;;;;1.80;0.50;;;;;;;16.66;44.41;100277.22;1746826;82;21024;-77
2021/09/03 08:52:45;;;;;;;1.30;0.60;;;;;;;16.65;44.48;100273.72;1768563;80;20985;-76
2021/09/03 08:55:12;;;;;;;1.35;0.60;;;;;;;16.75;43.94;100262.94;1778296;80;20989;-76
2021/09/03 08:57:39;;;;;;;1.70;0.55;;;;;;;16.90;44.66;100264.47;1778354;80;20988;-76
2021/09/03 09:00:23;;;;;;;2.22;0.68;;;;;;;17.09;44.53;100264.15;1778781;79;21818;-75
2021/09/03 09:03:04;;;;;;;1.12;0.70;;;;;;;17.22;42.65;100258.30;1778492;80;20881;-76
2021/09/03 09:05:56;;;;;;;1.93;0.50;;;;;;;17.24;43.14;100250.45;1773418;80;21351;-76
2021/09/03 09:08:25;;;;;;;1.62;0.55;;;;;;;17.19;42.40;100255.47;1777372;80;21027;-72
2021/09/03 09:10:58;;;;;;;2.87;0.70;;;;;;;17.22;42.70;100255.13;1778444;80;20905;-74
2021/09/03 09:13:33;;;;;;;2.15;0.55;;;;;;;17.34;43.29;100244.94;1763822;80;21884;-77
2021/09/03 09:16:17;;;;;;;0.78;0.50;;;;;;;17.47;42.85;100243.94;1747898;82;20980;-76
2021/09/03 09:18:53;;;;;;;0.65;0.50;;;;;;;17.55;41.85;100250.57;1720344;82;20968;-77
2021/09/03 09:21:36;;;;;;;3.42;0.70;;;;;;;17.65;41.96;100244.54;1766371;80;21019;-76
2021/09/03 09:24:13;;;;;;;1.00;0.60;;;;;;;17.72;41.06;100250.08;1763934;80;20943;-76
2021/09/03 09:26:54;;;;;;;2.52;0.60;;;;;;;17.71;40.36;100248.41;1757341;80;21140;-73
2021/09/03 09:29:27;;;;;;;1.98;0.50;;;;;;;17.72;41.49;100232.71;1748314;80;21426;-71
2021/09/03 09:31:58;;;;;;;1.57;0.53;;;;;;;17.84;40.93;100240.69;1751475;80;21374;-74
2021/09/03 09:34:33;;;;;;;0.88;0.50;;;;;;;17.95;41.35;100233.66;1760622;80;20945;-73
2021/09/03 09:37:02;;;;;;;0.65;0.40;;;;;;;18.03;40.67;100237.61;1730433;80;21007;-78
2021/09/03 09:39:51;;;;;;;2.05;0.53;;;;;;;18.05;40.01;100242.80;1751324;80;21841;-75
2021/09/03 09:42:21;;;;;;;2.08;0.50;;;;;;;18.07;39.26;100234.10;1745236;80;21023;-77
2021/09/03 09:44:57;;;;;;;1.80;0.40;;;;;;;18.17;39.61;100243.25;1747434;82;21031;-74
2021/09/03 09:47:23;;;;;;;0.88;0.40;;;;;;;18.33;38.83;100243.15;1702039;82;20945;-74
2021/09/03 09:49:50;;;;;;;1.27;0.50;;;;;;;18.36;38.60;100241.98;1747681;81;21466;-75
2021/09/03 09:52:18;;;;;;;0.62;0.42;;;;;;;18.17;38.74;100248.09;1748057;82;22184;-74
2021/09/03 09:54:45;;;;;;;0.72;0.50;;;;;;;18.01;39.02;100242.80;1693478;81;21376;-75
2021/09/03 09:57:12;;;;;;;1.42;0.57;;;;;;;17.99;40.01;100238.97;1744358;82;20937;-75
2021/09/03 09:59:38;;;;;;;1.10;0.47;;;;;;;18.17;39.58;100238.73;1745393;80;21402;-75
2021/09/03 10:02:05;;;;;;;1.62;0.70;;;;;;;18.36;39.96;100233.97;1744345;82;20996;-74
2021/09/03 10:04:32;;;;;;;3.35;0.40;;;;;;;18.54;40.16;100249.24;1724145;82;22217;-73
2021/09/03 10:07:02;;;;;;;1.22;0.57;;;;;;;18.50;39.65;100234.03;1744346;82;20984;-75
2021/09/03 10:09:31;;;;;;;1.85;0.60;;;;;;;18.47;40.59;100234.91;1744406;81;21543;-72
2021/09/03 10:11:59;;;;;;;0.82;0.40;;;;;;;18.54;39.75;100236.70;1744640;82;20988;-74
2021/09/03 10:14:29;;;;;;;1.45;0.82;;;;;;;18.61;39.55;100232.80;1744347;81;20953;-72
2021/09/03 10:16:56;;;;;;;1.17;0.75;;;;;;;18.64;39.72;100229.78;1745456;80;21818;-72
2021/09/03 10:19:27;;;;;;;1.47;0.50;;;;;;;18.73;40.17;100225.25;1744291;82;21335;-73
2021/09/03 10:22:09;;;;;;;2.33;0.80;;;;;;;18.85;39.39;100218.45;1744027;82;20941;-72
2021/09/03 10:24:36;;;;;;;0.80;0.50;;;;;;;18.86;39.64;100216.94;1744352;82;20929;-72
2021/09/03 10:27:06;;;;;;;0.90;0.42;;;;;;;19.05;39.68;100214.78;1744344;81;20924;-69
2021/09/03 10:29:37;;;;;;;1.57;0.57;;;;;;;19.23;38.50;100231.86;1744445;82;21850;-70
2021/09/03 10:32:19;;;;;;;3.25;0.60;;;;;;;19.16;37.94;100222.38;1744598;82;20932;-70
2021/09/03 10:34:54;;;;;;;2.62;0.40;;;;;;;18.96;37.37;100226.56;1745370;80;21329;-69
2021/09/03 10:37:28;;;;;;;0.65;0.40;;;;;;;18.90;38.14;100229.44;1744344;80;21024;-70
2021/09/03 10:40:27;;;;;;;1.47;0.60;;;;;;;19.15;38.11;100228.23;1760679;80;20968;-71
2021/09/03 10:42:59;;;;;;;1.60;0.72;;;;;;;19.44;37.30;100217.26;1775247;80;21735;-72
2021/09/03 10:45:40;;;;;;;0.80;0.62;;;;;;;19.58;37.21;100212.44;1753658;80;39308;-72
2021/09/03 10:48:17;;;;;;;0.72;0.50;;;;;;;19.64;36.95;100223.77;1775027;80;21075;-72
2021/09/03 10:50:54;;;;;;;1.10;0.50;;;;;;;19.59;36.40;100215.95;1765373;80;21035;-72
2021/09/03 10:53:34;;;;;;;1.50;0.50;;;;;;;19.53;36.64;100223.37;1743772;82;20982;-73
2021/09/03 10:56:09;;;;;;;2.17;0.60;;;;;;;19.45;36.80;100213.56;1744463;80;21809;-73
2021/09/03 10:58:52;;;;;;;2.17;0.70;;;;;;;19.43;37.02;100215.59;1744423;82;21106;-73
2021/09/03 11:01:31;;;;;;;1.15;0.42;;;;;;;19.45;37.41;100205.02;1744450;82;21453;-73
2021/09/03 11:04:13;;;;;;;0.33;0.30;;;;;;;19.57;37.41;100208.61;1763936;80;21051;-72
2021/09/03 11:06:55;;;;;;;0.82;0.50;;;;;;;19.77;37.39;100199.00;1753947;80;20988;-70
2021/09/03 11:09:28;;;;;;;1.72;0.60;;;;;;;19.85;35.31;100210.13;1774674;80;22226;-71
2021/09/03 11:12:09;;;;;;;0.75;0.50;;;;;;;19.67;35.88;100194.42;1775078;80;20964;-71
2021/09/03 11:14:36;;;;;;;1.15;0.57;;;;;;;19.73;36.40;100195.87;1775102;80;20942;-72
2021/09/03 11:17:07;;;;;;;0.95;0.50;;;;;;;19.87;35.53;100190.16;1774949;80;20933;-73
2021/09/03 11:19:41;;;;;;;1.35;0.60;;;;;;;19.93;35.65;100197.47;1775434;80;21436;-71
2021/09/03 11:22:15;;;;;;;1.05;0.60;;;;;;;19.99;35.81;100184.67;1775639;80;21796;-72
2021/09/03 11:24:49;;;;;;;5.33;0.88;;;;;;;20.15;36.30;100187.62;1773966;80;20976;-72
2021/09/03 11:27:21;;;;;;;0.80;0.70;;;;;;;20.21;35.90;100183.37;1775557;80;21336;-72
2021/09/03 11:29:57;;;;;;;1.32;0.57;;;;;;;20.21;36.43;100178.84;1775237;80;21004;-72
2021/09/03 11:32:25;;;;;;;0.93;0.65;;;;;;;20.27;36.20;100181.28;1775299;80;20941;-72
2021/09/03 11:35:06;;;;;;;1.45;0.68;;;;;;;20.32;35.11;100183.38;1775189;80;22182;-72